DAL1619 KDTW-KLAX
Flight info
| Callsign | DAL1619 |
|---|---|
| Flight time | N/A |
| Altitude | 40000 |
| Route | BARII3 SINKR KELLY FAM HRO FSM IRW CRUSR TCC J6 ABQ KA30Q HIPPI GABBL HLYWD1 |
| Aircraft | B772/H-SDE2E3FGHIJ5LORVWXY/LB1D1 |
Departure
| Time | N/A |
|---|---|
| Airport | Detroit Metropolitan Wayne County Airport (KDTW) |
Arrival
| Time | 2026-04-21 18:27 |
|---|---|
| Airport | Los Angeles International Airport (KLAX) |
| Time | Latitude | Longitude | Altitude | Speed | Heading |
|---|---|---|---|---|---|
| 2026-04-21 18:06 | 34.08325 | -116.49496 | 29272 ft | 424 kts | 259° |
| 2026-04-21 18:06 | 34.07948 | -116.53001 | 28787 ft | 416 kts | 259° |
| 2026-04-21 18:06 | 34.07583 | -116.56402 | 28307 ft | 398 kts | 259° |
| 2026-04-21 18:06 | 34.07238 | -116.59636 | 27901 ft | 384 kts | 259° |
| 2026-04-21 18:07 | 34.06932 | -116.62795 | 27485 ft | 376 kts | 259° |
| 2026-04-21 18:07 | 34.06649 | -116.65904 | 27075 ft | 371 kts | 259° |
| 2026-04-21 18:07 | 34.06368 | -116.68987 | 26668 ft | 370 kts | 259° |
| 2026-04-21 18:07 | 34.06086 | -116.72068 | 26263 ft | 369 kts | 259° |
| 2026-04-21 18:08 | 34.05801 | -116.75144 | 25867 ft | 369 kts | 259° |
| 2026-04-21 18:08 | 34.05514 | -116.78213 | 25477 ft | 368 kts | 259° |
| 2026-04-21 18:08 | 34.05226 | -116.81290 | 25071 ft | 368 kts | 259° |
| 2026-04-21 18:08 | 34.04942 | -116.84320 | 24657 ft | 368 kts | 259° |
| 2026-04-21 18:09 | 34.04653 | -116.87384 | 24282 ft | 368 kts | 259° |
| 2026-04-21 18:09 | 34.04347 | -116.90440 | 23808 ft | 364 kts | 257° |
| 2026-04-21 18:09 | 34.03959 | -116.93438 | 23270 ft | 360 kts | 256° |
| 2026-04-21 18:09 | 34.03553 | -116.96403 | 22730 ft | 356 kts | 256° |
| 2026-04-21 18:10 | 34.03160 | -116.99335 | 22243 ft | 352 kts | 256° |
| 2026-04-21 18:10 | 34.02781 | -117.02232 | 21768 ft | 347 kts | 256° |
| 2026-04-21 18:10 | 34.02421 | -117.05089 | 21297 ft | 343 kts | 257° |
| 2026-04-21 18:10 | 34.02086 | -117.07922 | 20846 ft | 340 kts | 257° |
| 2026-04-21 18:11 | 34.01759 | -117.10732 | 20388 ft | 337 kts | 257° |
| 2026-04-21 18:11 | 34.01431 | -117.13523 | 19950 ft | 335 kts | 257° |
| 2026-04-21 18:11 | 34.01103 | -117.16295 | 19501 ft | 334 kts | 257° |
| 2026-04-21 18:11 | 34.00774 | -117.19058 | 19105 ft | 332 kts | 257° |
| 2026-04-21 18:12 | 34.00446 | -117.21809 | 18634 ft | 331 kts | 257° |
| 2026-04-21 18:12 | 34.00119 | -117.24543 | 18159 ft | 330 kts | 257° |
| 2026-04-21 18:12 | 33.99792 | -117.27269 | 17584 ft | 328 kts | 257° |
| 2026-04-21 18:12 | 33.99468 | -117.29980 | 17111 ft | 326 kts | 257° |
| 2026-04-21 18:13 | 33.99151 | -117.32640 | 16666 ft | 324 kts | 256° |
| 2026-04-21 18:13 | 33.98832 | -117.35352 | 16195 ft | 322 kts | 256° |
| 2026-04-21 18:13 | 33.98521 | -117.38008 | 15762 ft | 319 kts | 256° |
| 2026-04-21 18:13 | 33.98216 | -117.40607 | 15331 ft | 316 kts | 256° |
| 2026-04-21 18:14 | 33.97603 | -117.45802 | 14486 ft | 311 kts | 256° |
| 2026-04-21 18:14 | 33.97355 | -117.48369 | 14077 ft | 307 kts | 262° |
| 2026-04-21 18:14 | 33.97665 | -117.50935 | 13646 ft | 314 kts | 278° |
| 2026-04-21 18:15 | 33.98296 | -117.53447 | 13234 ft | 312 kts | 278° |
| 2026-04-21 18:15 | 33.98905 | -117.55937 | 12801 ft | 308 kts | 278° |
| 2026-04-21 18:15 | 33.99498 | -117.58406 | 12400 ft | 305 kts | 278° |
| 2026-04-21 18:15 | 34.00079 | -117.60850 | 11999 ft | 302 kts | 278° |
| 2026-04-21 18:16 | 34.00651 | -117.63271 | 11623 ft | 300 kts | 278° |
| 2026-04-21 18:16 | 34.01221 | -117.65687 | 11234 ft | 298 kts | 279° |
| 2026-04-21 18:16 | 34.01783 | -117.68076 | 10875 ft | 295 kts | 279° |
| 2026-04-21 18:16 | 34.02170 | -117.70414 | 10481 ft | 274 kts | 264° |
| 2026-04-21 18:17 | 34.01976 | -117.72644 | 10178 ft | 265 kts | 257° |
| 2026-04-21 18:17 | 34.01732 | -117.74839 | 9796 ft | 264 kts | 258° |
| 2026-04-21 18:17 | 34.01512 | -117.77026 | 9420 ft | 260 kts | 259° |
| 2026-04-21 18:17 | 34.01305 | -117.79144 | 9089 ft | 253 kts | 259° |
| 2026-04-21 18:18 | 34.01099 | -117.81246 | 8758 ft | 252 kts | 259° |
| 2026-04-21 18:18 | 34.00895 | -117.83332 | 8428 ft | 250 kts | 259° |
| 2026-04-21 18:18 | 34.00691 | -117.85402 | 8113 ft | 248 kts | 260° |
| 2026-04-21 18:18 | 34.00488 | -117.87458 | 7786 ft | 247 kts | 260° |
| 2026-04-21 18:19 | 34.00287 | -117.89506 | 7478 ft | 245 kts | 260° |
| 2026-04-21 18:19 | 34.00115 | -117.91521 | 7153 ft | 245 kts | 262° |
| 2026-04-21 18:19 | 33.99958 | -117.93555 | 6834 ft | 243 kts | 262° |
| 2026-04-21 18:19 | 33.99777 | -117.95578 | 6521 ft | 242 kts | 261° |
| 2026-04-21 18:20 | 33.99581 | -117.97592 | 6195 ft | 241 kts | 261° |
| 2026-04-21 18:20 | 33.99379 | -117.99593 | 5878 ft | 240 kts | 260° |
| 2026-04-21 18:20 | 33.99176 | -118.01581 | 5562 ft | 237 kts | 261° |
| 2026-04-21 18:20 | 33.98972 | -118.03557 | 5303 ft | 239 kts | 261° |
| 2026-04-21 18:21 | 33.98765 | -118.05570 | 4953 ft | 242 kts | 261° |
| 2026-04-21 18:21 | 33.98561 | -118.07558 | 4587 ft | 233 kts | 261° |
| 2026-04-21 18:21 | 33.98369 | -118.09450 | 4341 ft | 223 kts | 261° |
| 2026-04-21 18:21 | 33.98180 | -118.11292 | 4041 ft | 220 kts | 261° |
| 2026-04-21 18:22 | 33.97994 | -118.13103 | 3810 ft | 214 kts | 261° |
| 2026-04-21 18:22 | 33.97817 | -118.14830 | 3584 ft | 200 kts | 260° |
| 2026-04-21 18:22 | 33.97648 | -118.16476 | 3419 ft | 196 kts | 260° |
| 2026-04-21 18:22 | 33.97483 | -118.18081 | 3237 ft | 190 kts | 260° |
| 2026-04-21 18:23 | 33.97323 | -118.19627 | 3153 ft | 188 kts | 261° |
| 2026-04-21 18:23 | 33.97162 | -118.21205 | 3070 ft | 187 kts | 260° |
| 2026-04-21 18:23 | 33.97003 | -118.22741 | 2975 ft | 189 kts | 261° |
| 2026-04-21 18:23 | 33.96841 | -118.24326 | 2736 ft | 188 kts | 260° |
| 2026-04-21 18:24 | 33.96682 | -118.25870 | 2476 ft | 184 kts | 260° |
| 2026-04-21 18:24 | 33.96529 | -118.27368 | 2233 ft | 176 kts | 261° |
| 2026-04-21 18:24 | 33.96382 | -118.28813 | 2009 ft | 173 kts | 259° |
| 2026-04-21 18:24 | 33.96233 | -118.30245 | 1766 ft | 171 kts | 260° |
| 2026-04-21 18:25 | 33.96087 | -118.31658 | 1551 ft | 166 kts | 260° |
| 2026-04-21 18:25 | 33.95951 | -118.33003 | 1328 ft | 157 kts | 260° |
| 2026-04-21 18:25 | 33.95823 | -118.34257 | 1100 ft | 143 kts | 259° |
| 2026-04-21 18:25 | 33.95701 | -118.35432 | 925 ft | 139 kts | 259° |
| 2026-04-21 18:26 | 33.95583 | -118.36570 | 729 ft | 137 kts | 260° |
| 2026-04-21 18:26 | 33.95468 | -118.37717 | 533 ft | 137 kts | 259° |
| 2026-04-21 18:26 | 33.95354 | -118.38850 | 377 ft | 135 kts | 259° |
| 2026-04-21 18:26 | 33.95234 | -118.39975 | 207 ft | 137 kts | 260° |
| 2026-04-21 18:27 | 33.95114 | -118.41095 | 99 ft | 126 kts | 263° |
| 2026-04-21 18:27 | 33.95027 | -118.41981 | 98 ft | 81 kts | 263° |
| 2026-04-21 18:27 | 33.94978 | -118.42418 | 99 ft | 40 kts | 256° |
| 2026-04-21 18:27 | 33.94879 | -118.42638 | 103 ft | 21 kts | 231° |
| 2026-04-21 18:28 | 33.94800 | -118.42729 | 105 ft | 11 kts | 217° |
| 2026-04-21 18:28 | 33.94723 | -118.42773 | 104 ft | 16 kts | 197° |
| 2026-04-21 18:28 | 33.94628 | -118.42776 | 101 ft | 12 kts | 173° |
| 2026-04-21 18:28 | 33.94565 | -118.42744 | 100 ft | 8 kts | 122° |
| 2026-04-21 18:29 | 33.94560 | -118.42698 | 102 ft | 6 kts | 85° |
| 2026-04-21 18:29 | 33.94568 | -118.42624 | 98 ft | 9 kts | 83° |
| 2026-04-21 18:29 | 33.94576 | -118.42545 | 101 ft | 9 kts | 83° |
| 2026-04-21 18:29 | 33.94583 | -118.42467 | 98 ft | 10 kts | 83° |
| 2026-04-21 18:30 | 33.94591 | -118.42375 | 100 ft | 11 kts | 83° |
| 2026-04-21 18:30 | 33.94601 | -118.42279 | 100 ft | 12 kts | 83° |
| 2026-04-21 18:30 | 33.94612 | -118.42165 | 100 ft | 15 kts | 83° |
| 2026-04-21 18:30 | 33.94624 | -118.42037 | 97 ft | 15 kts | 83° |
| 2026-04-21 18:31 | 33.94629 | -118.41910 | 100 ft | 15 kts | 89° |
| 2026-04-21 18:31 | 33.94641 | -118.41782 | 97 ft | 15 kts | 82° |
| 2026-04-21 18:31 | 33.94654 | -118.41655 | 97 ft | 15 kts | 83° |
| 2026-04-21 18:31 | 33.94667 | -118.41527 | 98 ft | 15 kts | 83° |
| 2026-04-21 18:32 | 33.94680 | -118.41399 | 97 ft | 15 kts | 83° |
| 2026-04-21 18:32 | 33.94693 | -118.41271 | 99 ft | 15 kts | 82° |
| 2026-04-21 18:32 | 33.94722 | -118.41148 | 98 ft | 15 kts | 77° |
| 2026-04-21 18:32 | 33.94738 | -118.41022 | 98 ft | 14 kts | 83° |
| 2026-04-21 18:33 | 33.94734 | -118.40932 | 99 ft | 8 kts | 99° |
| 2026-04-21 18:33 | 33.94727 | -118.40879 | 100 ft | 6 kts | 111° |
| 2026-04-21 18:33 | 33.94710 | -118.40850 | 100 ft | 4 kts | 132° |
| 2026-04-21 18:33 | 33.94695 | -118.40833 | 98 ft | 1 kts | 135° |
| 2026-04-21 18:34 | 33.94690 | -118.40826 | 100 ft | 0 kts | 136° |